SBOSBO BGR / KBGR
Speedbird OnlineSpeedbird Online BGR / KBGR

Bangor International Airport
12:19 32.8°C

Location Bangor, United States
Latitude: 44.80739974975586
Longitude: -68.8281021118164
Local Time 12:19 on 20 Jun 2024
UTC -4 hours (America/New_York)
Currency £1 equals USD 1.27
METAR KBGR 201553Z 27007KT 240V310 10SM SCT040 SCT250 32/22 A3014 RMK AO2 SLP203 T03220222
TAF KBGR 201120Z 2012/2112 25005KT P6SM SCT150 FM202100 28007KT P6SM -SHRA VCTS BKN080CB FM210000 26006KT P6SM VCSH BKN060
Weather As Of 20 Jun 2024 12:19
Description Scattered clouds
Wind 13 km/h from West (270°)
Cloud Cover 40%
Precipitation Rain: none, Snow: none
Sunrise 04:49
Sunset 20:24
Rebooking Mid Atlantic Winter Weather 18JAN24 - Customer Guidelines
Web Wikipedia
Codes IATA: BGR
ICAO: KBGR
Altitude 59 Meter / 192 Feet
Distance 4,976 KM / 3,092 Miles
from London.
Runways
RunwayLength (m)Surface
153487Asphalt
333487Asphalt
Radio
TypeDescriptionFrequency
A/DAPP/DEP118.925
ASOSASOS127.75
ATISATIS127.75
CLDCLNC DEL135.9
GNDGND121.9
MISCARNG OPS41.2
OPSANG OPS31.1
RDORDO122.2
TWRTWR120.7
UNICUNICOM122.95
Live ATC



Support Speedbird Online

© 2017-2024 Speedbird Online